createdAt,value
2023-04-03T00:00:47.779Z,2.13
2023-04-03T00:03:15.766Z,1.60
2023-04-03T00:05:43.661Z,1.63
2023-04-03T00:08:11.469Z,1.40
2023-04-03T00:10:39.439Z,1.63
2023-04-03T00:13:08.400Z,1.90
2023-04-03T00:15:37.969Z,1.97
2023-04-03T00:18:06.533Z,1.63
2023-04-03T00:20:35.365Z,1.70
2023-04-03T00:23:03.911Z,1.87
2023-04-03T00:25:31.400Z,1.50
2023-04-03T00:27:58.866Z,2.13
2023-04-03T00:30:26.524Z,1.60
2023-04-03T00:32:55.644Z,1.60
2023-04-03T00:35:24.302Z,1.67
2023-04-03T00:37:53.992Z,1.97
2023-04-03T00:40:23.224Z,1.80
2023-04-03T00:42:54.290Z,1.77
2023-04-03T00:45:29.838Z,1.57
2023-04-03T00:48:01.403Z,2.00
2023-04-03T00:50:30.400Z,1.53
2023-04-03T00:52:59.407Z,1.43
2023-04-03T00:55:27.199Z,1.73
2023-04-03T00:57:56.089Z,1.60
2023-04-03T01:00:25.133Z,1.60
2023-04-03T01:02:53.341Z,1.40
2023-04-03T01:05:23.575Z,1.60
2023-04-03T01:07:53.132Z,1.43
2023-04-03T01:10:21.833Z,1.63
2023-04-03T01:12:51.236Z,1.60
2023-04-03T01:15:20.657Z,1.70
2023-04-03T01:17:49.533Z,2.17
2023-04-03T01:20:40.540Z,1.90
2023-04-03T01:23:19.973Z,1.60
2023-04-03T01:25:50.658Z,1.83
2023-04-03T01:28:21.369Z,1.50
2023-04-03T01:30:53.072Z,1.60
2023-04-03T01:33:22.092Z,1.80
2023-04-03T01:35:49.552Z,1.67
2023-04-03T01:38:17.117Z,1.93
2023-04-03T01:40:44.553Z,2.10
2023-04-03T01:43:12.017Z,2.00
2023-04-03T01:45:39.600Z,1.80
2023-04-03T01:48:07.224Z,1.30
2023-04-03T01:50:36.183Z,1.90
2023-04-03T01:53:03.679Z,1.33
2023-04-03T01:55:31.068Z,2.07
2023-04-03T01:57:59.481Z,1.70
2023-04-03T02:00:27.664Z,1.70
2023-04-03T02:02:55.425Z,1.40
2023-04-03T02:05:23.073Z,1.47
2023-04-03T02:07:51.868Z,1.67
2023-04-03T02:10:19.506Z,1.33
2023-04-03T02:12:48.516Z,1.37
2023-04-03T02:15:16.331Z,1.43
2023-04-03T02:17:43.872Z,1.53
2023-04-03T02:20:11.900Z,1.87
2023-04-03T02:22:39.334Z,1.87
2023-04-03T02:25:08.777Z,1.90
2023-04-03T02:27:36.515Z,2.00
2023-04-03T02:30:04.479Z,2.33
2023-04-03T02:32:31.958Z,1.80
2023-04-03T02:34:59.416Z,1.77
2023-04-03T02:37:26.888Z,1.60
2023-04-03T02:39:54.345Z,2.03
2023-04-03T02:42:23.069Z,1.83
2023-04-03T02:44:50.504Z,1.97
2023-04-03T02:47:17.962Z,1.97
2023-04-03T02:49:46.893Z,1.80
2023-04-03T02:52:14.641Z,1.40
2023-04-03T02:54:42.380Z,1.80
2023-04-03T02:57:10.600Z,1.67
2023-04-03T02:59:41.465Z,1.90
2023-04-03T03:02:09.263Z,2.27
2023-04-03T03:04:37.521Z,1.70
2023-04-03T03:07:05.384Z,1.97
2023-04-03T03:09:32.846Z,1.83
2023-04-03T03:12:00.536Z,2.00
2023-04-03T03:14:28.022Z,1.80
2023-04-03T03:16:56.758Z,1.90
2023-04-03T03:19:24.224Z,2.10
2023-04-03T03:21:52.042Z,1.50
2023-04-03T03:24:19.548Z,1.83
2023-04-03T03:26:46.988Z,1.93
2023-04-03T03:29:14.415Z,1.43
2023-04-03T03:31:41.970Z,2.13
2023-04-03T03:34:10.942Z,1.97
2023-04-03T03:36:38.387Z,1.70
2023-04-03T03:39:06.050Z,1.93
2023-04-03T03:41:33.499Z,1.87
2023-04-03T03:44:00.934Z,1.67
2023-04-03T03:46:28.408Z,1.90
2023-04-03T03:48:55.876Z,1.57
2023-04-03T03:51:24.644Z,1.50
2023-04-03T03:53:52.084Z,2.00
2023-04-03T03:56:19.514Z,1.70
2023-04-03T03:58:46.998Z,1.70
2023-04-03T04:01:14.453Z,2.20
2023-04-03T04:03:42.067Z,2.00
2023-04-03T04:06:09.534Z,1.93
2023-04-03T04:08:38.311Z,2.30
2023-04-03T04:11:05.740Z,2.53
2023-04-03T04:13:33.146Z,1.40
2023-04-03T04:16:00.590Z,1.90
2023-04-03T04:18:28.056Z,1.60
2023-04-03T04:20:55.660Z,1.43
2023-04-03T04:23:23.141Z,1.67
2023-04-03T04:25:53.030Z,1.47
2023-04-03T04:28:20.493Z,1.60
2023-04-03T04:30:47.974Z,1.43
2023-04-03T04:33:15.899Z,2.17
2023-04-03T04:35:44.383Z,1.63
2023-04-03T04:38:11.887Z,1.90
2023-04-03T04:40:39.328Z,1.43
2023-04-03T04:43:08.063Z,1.80
2023-04-03T04:45:35.804Z,1.57
2023-04-03T04:48:03.554Z,2.97
2023-04-03T04:50:31.144Z,1.87
2023-04-03T04:52:58.567Z,1.53
2023-04-03T04:55:26.256Z,1.57
2023-04-03T04:57:53.701Z,1.60
2023-04-03T05:00:23.283Z,1.43
2023-04-03T05:02:50.755Z,1.87
2023-04-03T05:05:18.338Z,1.57
2023-04-03T05:07:45.900Z,1.57
2023-04-03T05:10:13.388Z,1.30
2023-04-03T05:12:41.234Z,1.43
2023-04-03T05:15:09.980Z,1.93
2023-04-03T05:17:38.713Z,2.27
2023-04-03T05:20:07.658Z,1.50
2023-04-03T05:22:35.251Z,1.43
2023-04-03T05:25:02.766Z,1.60
2023-04-03T05:27:30.233Z,1.63
2023-04-03T05:29:58.681Z,2.13
2023-04-03T05:32:27.909Z,1.90
2023-04-03T05:34:56.924Z,1.80
2023-04-03T05:37:24.976Z,1.50
2023-04-03T05:39:52.531Z,1.60
2023-04-03T05:42:19.948Z,2.40
2023-04-03T05:44:48.176Z,1.40
2023-04-03T05:47:15.625Z,1.80
2023-04-03T05:49:43.128Z,2.13
2023-04-03T05:52:22.355Z,1.80
2023-04-03T05:54:50.149Z,1.57
2023-04-03T05:57:18.022Z,2.00
2023-04-03T05:59:46.270Z,1.93
2023-04-03T06:02:15.619Z,1.80
2023-04-03T06:04:43.299Z,1.90
2023-04-03T06:07:16.455Z,1.63
2023-04-03T06:09:44.406Z,1.63
2023-04-03T06:12:12.292Z,1.63
2023-04-03T06:14:39.844Z,1.33
2023-04-03T06:17:08.183Z,1.70
2023-04-03T06:19:35.729Z,1.60
2023-04-03T06:22:03.916Z,1.70
2023-04-03T06:24:33.344Z,1.83
2023-04-03T06:27:00.852Z,1.80
2023-04-03T06:29:28.291Z,1.67
2023-04-03T06:31:55.909Z,2.20
2023-04-03T06:34:23.519Z,2.23
2023-04-03T06:36:51.651Z,1.67
2023-04-03T06:39:27.341Z,1.80
2023-04-03T06:41:56.271Z,1.67
2023-04-03T06:44:23.760Z,1.80
2023-04-03T06:46:51.208Z,1.30
2023-04-03T06:49:18.626Z,1.43
2023-04-03T06:51:46.112Z,1.47
2023-04-03T06:54:13.668Z,1.37
2023-04-03T07:00:04.343Z,1.50
2023-04-03T07:02:33.251Z,1.10
2023-04-03T07:05:00.677Z,1.30
2023-04-03T07:07:28.141Z,1.27
2023-04-03T07:09:55.769Z,1.40
2023-04-03T07:12:23.183Z,1.43
2023-04-03T07:14:50.631Z,1.33
2023-04-03T07:17:18.564Z,1.40
2023-04-03T07:19:47.415Z,1.50
2023-04-03T07:22:14.832Z,1.33
2023-04-03T07:24:42.293Z,1.37
2023-04-03T07:27:09.752Z,1.30
2023-04-03T07:29:37.602Z,1.20
2023-04-03T07:32:05.430Z,0.90
2023-04-03T07:34:33.573Z,0.80
2023-04-03T07:37:03.468Z,1.57
2023-04-03T07:39:31.060Z,1.03
2023-04-03T07:41:58.452Z,1.40
2023-04-03T07:44:26.302Z,1.80
2023-04-03T07:46:53.762Z,1.37
2023-04-03T07:49:21.260Z,0.90
2023-04-03T07:51:49.530Z,1.70
2023-04-03T07:54:18.268Z,0.93
2023-04-03T07:56:46.081Z,0.90
2023-04-03T07:59:13.515Z,1.17
2023-04-03T08:01:41.017Z,1.10
2023-04-03T08:04:08.710Z,0.87
2023-04-03T08:06:45.562Z,1.47
2023-04-03T08:09:14.434Z,1.67
2023-04-03T08:11:43.311Z,1.30
2023-04-03T08:14:16.396Z,1.53
2023-04-03T08:16:44.623Z,1.13
2023-04-03T08:19:18.918Z,1.63
2023-04-03T08:21:52.632Z,0.90
2023-04-03T08:24:20.037Z,1.40
2023-04-03T08:26:48.785Z,1.30
2023-04-03T08:29:16.176Z,1.37
2023-04-03T08:31:43.843Z,1.80
2023-04-03T08:34:12.355Z,1.13
2023-04-03T08:36:39.761Z,1.40
2023-04-03T08:39:07.450Z,1.70
2023-04-03T08:41:36.788Z,1.20
2023-04-03T08:44:17.239Z,1.03
2023-04-03T08:47:06.261Z,1.13
2023-04-03T08:49:37.468Z,2.00
2023-04-03T08:52:12.097Z,1.43
2023-04-03T08:54:51.703Z,1.00
2023-04-03T08:57:24.717Z,1.50
2023-04-03T08:59:53.991Z,1.27
2023-04-03T09:02:35.357Z,1.10
2023-04-03T09:05:12.200Z,1.20
2023-04-03T09:07:44.623Z,0.93
2023-04-03T09:10:14.070Z,1.17
2023-04-03T09:12:44.486Z,1.03
2023-04-03T09:15:27.811Z,1.43
2023-04-03T09:18:04.902Z,1.70
2023-04-03T09:20:43.389Z,1.30
2023-04-03T09:23:22.550Z,1.07
2023-04-03T09:25:52.212Z,1.07
2023-04-03T09:28:19.629Z,1.07
2023-04-03T09:30:48.356Z,1.07
2023-04-03T09:33:16.194Z,1.00
2023-04-03T09:35:48.215Z,1.13
2023-04-03T09:38:19.654Z,0.87
2023-04-03T09:40:49.375Z,1.57
2023-04-03T09:43:29.082Z,1.40
2023-04-03T09:46:19.422Z,1.40
2023-04-03T09:49:08.325Z,0.90
2023-04-03T09:51:37.765Z,1.50
2023-04-03T09:54:28.153Z,1.20
2023-04-03T09:56:57.655Z,1.20
2023-04-03T09:59:25.782Z,1.33
2023-04-03T10:02:03.797Z,1.17
2023-04-03T10:04:41.230Z,1.10
2023-04-03T10:07:33.840Z,1.27
2023-04-03T10:10:04.985Z,0.90
2023-04-03T10:12:32.434Z,1.37
2023-04-03T10:15:01.521Z,1.10
2023-04-03T10:17:54.865Z,1.23
2023-04-03T10:20:32.829Z,1.07
2023-04-03T10:23:14.558Z,1.17
2023-04-03T10:25:50.022Z,1.00
2023-04-03T10:28:27.356Z,1.10
2023-04-03T10:31:02.840Z,1.30
2023-04-03T10:33:47.723Z,0.97
2023-04-03T10:36:26.203Z,1.07
2023-04-03T10:39:02.874Z,1.40
2023-04-03T10:41:42.113Z,1.00
2023-04-03T10:44:18.560Z,1.00
2023-04-03T10:46:50.845Z,1.00
2023-04-03T10:49:30.660Z,1.00
2023-04-03T10:52:06.050Z,0.80
2023-04-03T10:54:39.896Z,0.80
2023-04-03T10:57:13.049Z,0.93
2023-04-03T10:59:45.899Z,0.93
2023-04-03T11:02:23.091Z,0.80
2023-04-03T11:04:55.446Z,1.10
2023-04-03T11:07:26.516Z,1.10
2023-04-03T11:09:59.756Z,0.80
2023-04-03T11:12:33.636Z,1.50
2023-04-03T11:15:03.912Z,0.90
2023-04-03T11:17:37.754Z,1.17
2023-04-03T11:20:17.478Z,1.07
2023-04-03T11:22:50.918Z,0.90
2023-04-03T11:25:23.246Z,1.03
2023-04-03T11:27:54.651Z,1.10
2023-04-03T11:30:27.129Z,1.17
2023-04-03T11:33:24.429Z,1.13
2023-04-03T11:35:56.306Z,0.93
2023-04-03T11:38:28.048Z,1.00
2023-04-03T11:40:57.845Z,0.80
2023-04-03T11:43:28.280Z,1.00
2023-04-03T11:46:00.148Z,0.83
2023-04-03T11:48:54.197Z,1.43
2023-04-03T11:51:43.718Z,0.83
2023-04-03T11:54:47.189Z,1.30
2023-04-03T11:57:45.637Z,0.93
2023-04-03T12:00:51.881Z,1.07
2023-04-03T12:03:56.873Z,0.87
2023-04-03T12:07:13.564Z,1.10
2023-04-03T12:10:30.948Z,1.20
2023-04-03T12:13:00.728Z,1.10
2023-04-03T12:15:48.830Z,0.97
2023-04-03T12:18:53.335Z,0.97
2023-04-03T12:21:22.924Z,1.00
2023-04-03T12:24:15.515Z,1.00
2023-04-03T12:26:49.097Z,0.93
2023-04-03T12:29:22.486Z,1.30
2023-04-03T12:32:08.382Z,1.10
2023-04-03T12:34:56.834Z,1.00
2023-04-03T12:37:42.056Z,1.00
2023-04-03T12:40:21.488Z,1.00
2023-04-03T12:43:08.520Z,0.90
2023-04-03T12:45:45.150Z,0.87
2023-04-03T12:48:17.047Z,1.00
2023-04-03T12:50:47.459Z,1.00
2023-04-03T12:53:18.624Z,0.67
2023-04-03T12:55:47.467Z,0.80
2023-04-03T12:58:17.734Z,0.80
2023-04-03T13:00:45.149Z,0.77
2023-04-03T13:03:24.829Z,0.90
2023-04-03T13:05:52.832Z,0.90
2023-04-03T13:08:21.674Z,1.00
2023-04-03T13:10:56.955Z,1.47
2023-04-03T13:13:24.906Z,0.70
2023-04-03T13:15:53.718Z,1.17
2023-04-03T13:18:30.913Z,1.10
2023-04-03T13:21:03.498Z,1.00
2023-04-03T13:23:32.316Z,0.80
2023-04-03T13:26:04.397Z,0.90
2023-04-03T13:28:33.713Z,1.00
2023-04-03T13:31:05.501Z,1.00
2023-04-03T13:33:38.743Z,1.03
2023-04-03T13:36:09.910Z,0.90
2023-04-03T13:38:37.530Z,1.10
2023-04-03T13:41:25.116Z,0.90
2023-04-03T13:43:53.774Z,1.10
2023-04-03T13:46:28.034Z,1.20
2023-04-03T13:48:58.148Z,0.93
2023-04-03T13:51:27.728Z,1.00
2023-04-03T13:53:56.884Z,0.83
2023-04-03T13:56:32.750Z,1.17
2023-04-03T13:59:05.865Z,1.03
2023-04-03T14:01:52.469Z,0.90
2023-04-03T14:04:22.502Z,1.13
2023-04-03T14:06:51.182Z,0.87
2023-04-03T14:09:20.993Z,0.83
2023-04-03T14:11:52.513Z,0.90
2023-04-03T14:14:22.759Z,1.10
2023-04-03T14:16:55.121Z,0.80
2023-04-03T14:19:25.701Z,0.87
2023-04-03T14:21:54.490Z,1.03
2023-04-03T14:24:23.328Z,0.90
2023-04-03T14:26:54.341Z,1.10
2023-04-03T14:29:23.387Z,1.27
2023-04-03T14:32:00.441Z,1.00
2023-04-03T14:34:35.224Z,0.93
2023-04-03T14:37:02.790Z,1.10
2023-04-03T14:39:31.175Z,0.90
2023-04-03T14:41:59.897Z,1.00
2023-04-03T14:44:27.272Z,0.83
2023-04-03T14:46:57.048Z,0.80
2023-04-03T14:49:29.057Z,0.97
2023-04-03T14:51:57.602Z,1.10
2023-04-03T14:54:28.770Z,1.20
2023-04-03T14:57:14.683Z,1.10
2023-04-03T14:59:44.155Z,1.00
2023-04-03T15:02:27.179Z,1.00
2023-04-03T15:04:54.967Z,1.43
2023-04-03T15:07:22.891Z,1.00
2023-04-03T15:09:50.655Z,1.10
2023-04-03T15:12:18.695Z,0.90
2023-04-03T15:14:53.561Z,1.00
2023-04-03T15:17:28.500Z,1.00
2023-04-03T15:19:56.049Z,0.90
2023-04-03T15:22:23.555Z,1.30
2023-04-03T15:24:50.995Z,1.20
2023-04-03T15:27:18.742Z,0.90
2023-04-03T15:29:47.682Z,1.20
2023-04-03T15:32:15.395Z,1.07
2023-04-03T15:34:43.217Z,1.10
2023-04-03T15:37:10.827Z,1.07
2023-04-03T15:39:38.291Z,1.10
2023-04-03T15:42:07.178Z,1.00
2023-04-03T15:44:36.114Z,1.00
2023-04-03T15:47:05.040Z,1.00
2023-04-03T15:49:35.141Z,0.90
2023-04-03T15:52:02.773Z,1.17
2023-04-03T15:54:31.002Z,1.40
2023-04-03T15:56:59.338Z,1.00
2023-04-03T15:59:26.806Z,0.90
2023-04-03T16:01:54.587Z,0.93
2023-04-03T16:04:23.554Z,1.10
2023-04-03T16:06:51.885Z,1.60
2023-04-03T16:09:19.478Z,1.40
2023-04-03T16:11:46.924Z,0.90
2023-04-03T16:14:14.331Z,1.33
2023-04-03T16:16:41.946Z,0.97
2023-04-03T16:19:10.898Z,1.10
2023-04-03T16:21:39.850Z,1.27
2023-04-03T16:24:07.565Z,1.17
2023-04-03T16:26:35.033Z,1.10
2023-04-03T16:29:02.469Z,1.27
2023-04-03T16:31:30.317Z,1.30
2023-04-03T16:33:58.245Z,1.53
2023-04-03T16:36:26.163Z,1.27
2023-04-03T16:38:54.972Z,1.30
2023-04-03T16:41:22.564Z,1.37
2023-04-03T16:43:50.958Z,1.37
2023-04-03T16:46:18.489Z,1.27
2023-04-03T16:48:45.900Z,1.10
2023-04-03T16:51:14.056Z,1.00
2023-04-03T16:53:41.666Z,1.20
2023-04-03T16:56:10.469Z,2.27
2023-04-03T16:58:37.919Z,1.20
2023-04-03T17:01:13.171Z,1.53
2023-04-03T17:03:41.212Z,1.20
2023-04-03T17:06:08.910Z,1.53
2023-04-03T17:08:36.577Z,1.30
2023-04-03T17:11:04.045Z,1.20
2023-04-03T17:13:34.696Z,1.20
2023-04-03T17:16:05.680Z,1.40
2023-04-03T17:18:34.148Z,1.37
2023-04-03T17:21:02.523Z,1.53
2023-04-03T17:23:30.487Z,1.40
2023-04-03T17:25:58.212Z,1.60
2023-04-03T17:28:28.656Z,1.30
2023-04-03T17:30:59.066Z,1.30
2023-04-03T17:33:28.352Z,1.50
2023-04-03T17:35:58.324Z,1.30
2023-04-03T17:38:25.933Z,1.60
2023-04-03T17:40:53.410Z,1.43
2023-04-03T17:43:20.940Z,1.80
2023-04-03T17:45:48.495Z,1.30
2023-04-03T17:48:17.256Z,1.17
2023-04-03T17:50:44.675Z,1.70
2023-04-03T17:53:12.135Z,1.77
2023-04-03T17:55:40.122Z,1.50
2023-04-03T17:58:07.827Z,1.50
2023-04-03T18:00:35.222Z,1.57
2023-04-03T18:03:03.616Z,1.60
2023-04-03T18:05:32.627Z,1.00
2023-04-03T18:08:01.924Z,1.50
2023-04-03T18:10:30.196Z,1.67
2023-04-03T18:12:58.171Z,1.73
2023-04-03T18:15:25.936Z,1.80
2023-04-03T18:17:56.616Z,1.70
2023-04-03T18:20:24.140Z,1.57
2023-04-03T18:22:53.147Z,1.87
2023-04-03T18:25:20.977Z,2.57
2023-04-03T18:27:49.722Z,1.30
2023-04-03T18:30:18.837Z,1.40
2023-04-03T18:32:46.377Z,1.40
2023-04-03T18:35:13.979Z,1.70
2023-04-03T18:37:41.479Z,1.50
2023-04-03T18:40:11.896Z,1.33
2023-04-03T18:42:41.495Z,1.33
2023-04-03T18:45:12.393Z,1.20
2023-04-03T18:47:40.710Z,1.53
2023-04-03T18:50:09.710Z,1.93
2023-04-03T18:52:37.150Z,1.40
2023-04-03T18:55:05.068Z,1.20
2023-04-03T18:57:34.061Z,1.57
2023-04-03T19:00:01.821Z,1.70
2023-04-03T19:02:29.817Z,1.57
2023-04-03T19:04:57.671Z,1.63
2023-04-03T19:07:25.225Z,2.00
2023-04-03T19:09:52.910Z,1.83
2023-04-03T19:12:20.885Z,1.60
2023-04-03T19:14:49.711Z,1.60
2023-04-03T19:17:17.499Z,1.60
2023-04-03T19:19:45.277Z,1.50
2023-04-03T19:22:12.744Z,1.33
2023-04-03T19:24:40.159Z,1.43
2023-04-03T19:27:07.601Z,1.77
2023-04-03T19:29:35.205Z,1.70
2023-04-03T19:32:03.985Z,1.90
2023-04-03T19:34:31.470Z,1.60
2023-04-03T19:36:59.097Z,1.73
2023-04-03T19:39:29.034Z,1.87
2023-04-03T19:41:56.492Z,1.47
2023-04-03T19:44:23.962Z,1.93
2023-04-03T19:46:51.805Z,1.67
2023-04-03T19:49:21.791Z,2.20
2023-04-03T19:51:49.266Z,1.80
2023-04-03T19:54:16.682Z,2.03
2023-04-03T19:56:44.143Z,1.97
2023-04-03T19:59:11.842Z,2.43
2023-04-03T20:01:39.362Z,1.77
2023-04-03T20:04:06.885Z,1.57
2023-04-03T20:06:36.758Z,1.47
2023-04-03T20:09:04.729Z,1.70
2023-04-03T20:11:32.130Z,1.17
2023-04-03T20:13:59.523Z,1.43
2023-04-03T20:16:28.186Z,1.40
2023-04-03T20:18:56.631Z,1.13
2023-04-03T20:21:31.869Z,1.57
2023-04-03T20:24:01.468Z,1.97
2023-04-03T20:26:31.718Z,1.90
2023-04-03T20:29:03.388Z,1.80
2023-04-03T20:31:33.485Z,1.67
2023-04-03T20:34:01.440Z,1.73
2023-04-03T20:36:30.896Z,1.97
2023-04-03T20:38:59.819Z,2.50
2023-04-03T20:41:27.415Z,2.40
2023-04-03T20:43:54.901Z,1.83
2023-04-03T20:46:25.440Z,2.00
2023-04-03T20:48:53.579Z,2.30
2023-04-03T20:51:22.105Z,2.10
2023-04-03T20:53:49.626Z,2.50
2023-04-03T20:56:18.443Z,2.00
2023-04-03T20:58:47.221Z,2.33
2023-04-03T21:01:17.150Z,1.90
2023-04-03T21:03:46.227Z,2.57
2023-04-03T21:06:51.699Z,1.80
2023-04-03T21:09:56.731Z,1.80
2023-04-03T21:13:01.898Z,1.70
2023-04-03T21:15:47.454Z,2.03
2023-04-03T21:18:40.164Z,1.77
2023-04-03T21:21:08.429Z,1.67
2023-04-03T21:23:35.865Z,2.00
2023-04-03T21:26:03.353Z,2.10
2023-04-03T21:28:31.646Z,2.10
2023-04-03T21:30:59.097Z,2.03
2023-04-03T21:33:30.270Z,2.10
2023-04-03T21:35:59.801Z,1.73
2023-04-03T21:38:27.524Z,2.03
2023-04-03T21:40:57.494Z,2.47
2023-04-03T21:43:25.015Z,2.03
2023-04-03T21:45:54.289Z,2.00
2023-04-03T21:48:23.648Z,1.90
2023-04-03T21:50:53.636Z,2.03
2023-04-03T21:53:22.520Z,1.80
2023-04-03T21:55:57.244Z,1.90
2023-04-03T21:58:30.399Z,1.80
2023-04-03T22:00:57.945Z,1.93
2023-04-03T22:03:25.757Z,4.30
2023-04-03T22:05:54.519Z,7.57
2023-04-03T22:08:21.976Z,3.47
2023-04-03T22:10:49.622Z,1.83
2023-04-03T22:13:17.045Z,3.47
2023-04-03T22:15:48.248Z,2.53
2023-04-03T22:18:15.741Z,1.60
2023-04-03T22:20:44.251Z,2.13
2023-04-03T22:23:13.009Z,1.50
2023-04-03T22:25:40.442Z,1.73
2023-04-03T22:28:07.968Z,2.40
2023-04-03T22:30:36.182Z,1.57
2023-04-03T22:33:03.670Z,1.93
2023-04-03T22:35:31.454Z,2.03
2023-04-03T22:37:59.338Z,1.80
2023-04-03T22:40:28.109Z,2.37
2023-04-03T22:42:55.510Z,2.20
2023-04-03T22:45:22.914Z,1.90
2023-04-03T22:47:50.454Z,1.90
2023-04-03T22:50:17.968Z,2.10
2023-04-03T22:52:45.421Z,2.07
2023-04-03T22:55:19.082Z,1.83
2023-04-03T22:57:48.636Z,1.80
2023-04-03T23:00:17.458Z,1.80
2023-04-03T23:02:44.900Z,1.90
2023-04-03T23:05:12.356Z,1.77
2023-04-03T23:07:39.822Z,1.80
2023-04-03T23:10:08.059Z,1.63
2023-04-03T23:12:38.208Z,2.00
2023-04-03T23:15:08.232Z,1.70
2023-04-03T23:17:37.079Z,2.03
2023-04-03T23:20:05.297Z,2.23
2023-04-03T23:22:32.758Z,2.03
2023-04-03T23:25:00.146Z,2.00
2023-04-03T23:27:27.797Z,1.93
2023-04-03T23:29:55.609Z,2.20
2023-04-03T23:32:24.394Z,2.20
2023-04-03T23:34:51.820Z,1.90
2023-04-03T23:37:19.229Z,2.33
2023-04-03T23:39:46.646Z,2.33
2023-04-03T23:42:14.134Z,2.30
2023-04-03T23:44:41.558Z,2.23
2023-04-03T23:47:08.950Z,2.33
2023-04-03T23:49:38.327Z,2.23
2023-04-03T23:52:06.163Z,1.80
2023-04-03T23:54:33.609Z,2.17
2023-04-03T23:57:00.994Z,2.00
2023-04-03T23:59:30.754Z,2.10
